OOCL Kaohsiung — 9V9830 — position and weather

sailwx.info

Track history (hours):
 
Tides and Currents Weather Stations Pressure Air Temp Water Temp Dewpoint Dewpoint Depression Visibility Wind Speed Wind Dir Waves Ship Positions

OOCL Kaohsiung

Last reported at 2014-Oct-19 17:25 UTC. Time now 2014-Oct-20 04:37 UTC.
Position N 38°50' W 030°32'.

Length 280 m; draft 13.2 m.

Type: Cargo ship. MMSI: 566389000.

Date/timePositionNaut miles runAvg speedWind from/ knotsBaromVisibWave heightAir tempDewpointWater temp
2014-Oct-19 17:25N 38°50' W 030°32'1719.4
2014-Oct-19 16:33N 38°41' W 030°14'1919.3
2014-Oct-19 15:33N 38°33' W 029°52'1918.7
2014-Oct-19 14:33N 38°25' W 029°30'1918.7
2014-Oct-19 13:33N 38°19' W 029°08'1818.3
2014-Oct-19 12:33N 38°11' W 028°46'1918.7
2014-Oct-19 11:33N 38°04' W 028°24'1919.4
2014-Oct-19 10:33N 37°55' W 028°02'2019.6
2014-Oct-19 09:33N 37°46' W 027°40'1919.3
2014-Oct-19 08:33N 37°37' W 027°19'1919.5
2014-Oct-19 07:33N 37°28' W 026°57'1919.1
2014-Oct-19 06:33N 37°19' W 026°36'1918.9
2014-Oct-19 05:34N 37°11' W 026°14'1919.3
2014-Oct-19 04:33N 37°02' W 025°53'1919.1
2014-Oct-19 03:33N 36°53' W 025°32'1919.1
2014-Oct-19 02:33N 36°44' W 025°11'1919.1
2014-Oct-19 01:34N 36°37' W 024°48'2119.9
2014-Oct-19 00:29N 36°36' W 024°22'1819.7
2014-Oct-18 23:34N 36°36' W 023°59'89219.0
2014-Oct-17 00:34N 35°57' W 005°33'1918.9
2014-Oct-16 23:34N 36°04' W 005°11'20919.9
2014-Oct-16 13:05N 36°42' W 000°56'5019.9
2014-Oct-16 10:33N 36°56' E 000°04'4120.1
2014-Oct-16 08:32N 37°06' E 000°53'2120.0
2014-Oct-16 07:29N 37°11' E 001°19'38517.6
2014-Oct-15 09:33N 39°13' E 009°04'0 0.0
2014-Oct-15 08:33N 39°13' E 009°04'0 0.0
2014-Oct-15 07:33N 39°13' E 009°04'0 0.0
2014-Oct-15 06:33N 39°13' E 009°04'0 0.0
2014-Oct-15 05:33N 39°13' E 009°04'0 0.0
2014-Oct-15 04:33N 39°13' E 009°04'0 0.0
2014-Oct-15 03:33N 39°13' E 009°04'0 0.0
2014-Oct-15 02:33N 39°13' E 009°04'0 0.0
2014-Oct-15 01:33N 39°13' E 009°04'0 0.0
2014-Oct-15 00:33N 39°13' E 009°04'0 0.0
2014-Oct-14 23:33N 39°13' E 009°04'0 0.1
2014-Oct-14 22:33N 39°13' E 009°04'5 5.4
2014-Oct-14 21:33N 39°08' E 009°06'8 8.5
2014-Oct-14 20:33N 39°02' E 009°13'1413.7
2014-Oct-14 19:33N 38°54' E 009°28'3816.8
2014-Oct-14 17:18N 38°35' E 010°10'1417.7
2014-Oct-14 16:31N 38°28' E 010°25'  
2014-Oct-10 22:25N 29°50' E 032°34'  
Track history (hours):
 
Tides and Currents Weather Stations Pressure Air Temp Water Temp Dewpoint Dewpoint Depression Visibility Wind Speed Wind Dir Waves Ship Positions

OOCL Kaohsiung

Last reported at 2014-Oct-19 17:25 UTC. Time now 2014-Oct-20 04:37 UTC.
Position N 38°50' W 030°32'.

Length 280 m; draft 13.2 m.

Type: Cargo ship. MMSI: 566389000.

Date/timePositionNaut miles runAvg speedWind from/ knotsBaromVisibWave heightAir tempDewpointWater temp
2014-Oct-19 17:25N 38°50' W 030°32'1719.4
2014-Oct-19 16:33N 38°41' W 030°14'1919.3
2014-Oct-19 15:33N 38°33' W 029°52'1918.7
2014-Oct-19 14:33N 38°25' W 029°30'1918.7
2014-Oct-19 13:33N 38°19' W 029°08'1818.3
2014-Oct-19 12:33N 38°11' W 028°46'1918.7
2014-Oct-19 11:33N 38°04' W 028°24'1919.4
2014-Oct-19 10:33N 37°55' W 028°02'2019.6
2014-Oct-19 09:33N 37°46' W 027°40'1919.3
2014-Oct-19 08:33N 37°37' W 027°19'1919.5
2014-Oct-19 07:33N 37°28' W 026°57'1919.1
2014-Oct-19 06:33N 37°19' W 026°36'1918.9
2014-Oct-19 05:34N 37°11' W 026°14'1919.3
2014-Oct-19 04:33N 37°02' W 025°53'1919.1
2014-Oct-19 03:33N 36°53' W 025°32'1919.1
2014-Oct-19 02:33N 36°44' W 025°11'1919.1
2014-Oct-19 01:34N 36°37' W 024°48'2119.9
2014-Oct-19 00:29N 36°36' W 024°22'1819.7
2014-Oct-18 23:34N 36°36' W 023°59'89219.0
2014-Oct-17 00:34N 35°57' W 005°33'1918.9
2014-Oct-16 23:34N 36°04' W 005°11'20919.9
2014-Oct-16 13:05N 36°42' W 000°56'5019.9
2014-Oct-16 10:33N 36°56' E 000°04'4120.1
2014-Oct-16 08:32N 37°06' E 000°53'2120.0
2014-Oct-16 07:29N 37°11' E 001°19'38517.6
2014-Oct-15 09:33N 39°13' E 009°04'0 0.0
2014-Oct-15 08:33N 39°13' E 009°04'0 0.0
2014-Oct-15 07:33N 39°13' E 009°04'0 0.0
2014-Oct-15 06:33N 39°13' E 009°04'0 0.0
2014-Oct-15 05:33N 39°13' E 009°04'0 0.0
2014-Oct-15 04:33N 39°13' E 009°04'0 0.0
2014-Oct-15 03:33N 39°13' E 009°04'0 0.0
2014-Oct-15 02:33N 39°13' E 009°04'0 0.0
2014-Oct-15 01:33N 39°13' E 009°04'0 0.0
2014-Oct-15 00:33N 39°13' E 009°04'0 0.0
2014-Oct-14 23:33N 39°13' E 009°04'0 0.1
2014-Oct-14 22:33N 39°13' E 009°04'5 5.4
2014-Oct-14 21:33N 39°08' E 009°06'8 8.5
2014-Oct-14 20:33N 39°02' E 009°13'1413.7
2014-Oct-14 19:33N 38°54' E 009°28'3816.8
2014-Oct-14 17:18N 38°35' E 010°10'1417.7
2014-Oct-14 16:31N 38°28' E 010°25'  
2014-Oct-10 22:25N 29°50' E 032°34'  

Dump ship's entire track history